createdAt,value
2023-02-08T00:01:20.628Z,33.51
2023-02-08T00:03:50.600Z,32.35
2023-02-08T00:06:20.558Z,31.24
2023-02-08T00:08:47.751Z,30.91
2023-02-08T00:11:14.886Z,32.11
2023-02-08T00:13:42.938Z,31.37
2023-02-08T00:16:12.830Z,29.66
2023-02-08T00:18:40.726Z,30.01
2023-02-08T00:21:14.397Z,30.70
2023-02-08T00:23:42.520Z,30.73
2023-02-08T00:26:10.294Z,29.93
2023-02-08T00:28:37.801Z,30.17
2023-02-08T00:31:06.070Z,30.07
2023-02-08T00:33:35.802Z,30.80
2023-02-08T00:36:07.654Z,31.91
2023-02-08T00:38:37.811Z,30.15
2023-02-08T00:41:06.237Z,30.12
2023-02-08T00:43:34.022Z,31.09
2023-02-08T00:46:01.706Z,30.47
2023-02-08T00:48:29.028Z,30.65
2023-02-08T00:51:13.639Z,29.89
2023-02-08T00:53:45.868Z,29.60
2023-02-08T00:56:14.506Z,29.27
2023-02-08T00:58:42.604Z,29.47
2023-02-08T01:01:13.794Z,30.82
2023-02-08T01:03:45.158Z,31.23
2023-02-08T01:06:16.945Z,30.14
2023-02-08T01:08:44.498Z,30.15
2023-02-08T01:11:22.886Z,30.39
2023-02-08T01:13:50.756Z,30.05
2023-02-08T01:16:22.174Z,31.95
2023-02-08T01:18:53.418Z,29.83
2023-02-08T01:21:24.521Z,30.49
2023-02-08T01:23:52.564Z,30.86
2023-02-08T01:26:21.764Z,28.66
2023-02-08T01:28:49.639Z,28.97
2023-02-08T01:31:29.143Z,29.67
2023-02-08T01:34:00.042Z,29.01
2023-02-08T01:36:29.456Z,30.68
2023-02-08T01:38:56.653Z,30.36
2023-02-08T01:41:28.580Z,29.92
2023-02-08T01:44:13.512Z,30.00
2023-02-08T01:46:46.279Z,30.80
2023-02-08T01:49:14.265Z,30.23
2023-02-08T01:52:03.691Z,29.80
2023-02-08T01:54:42.489Z,31.42
2023-02-08T01:57:10.579Z,33.47
2023-02-08T01:59:48.283Z,33.31
2023-02-08T02:02:19.428Z,30.35
2023-02-08T02:04:49.331Z,31.59
2023-02-08T02:07:19.241Z,31.45
2023-02-08T02:10:09.110Z,32.25
2023-02-08T02:12:42.078Z,31.99
2023-02-08T02:15:10.385Z,33.87
2023-02-08T02:17:39.346Z,31.10
2023-02-08T02:20:23.209Z,31.40
2023-02-08T02:23:46.754Z,31.28
2023-02-08T02:26:51.931Z,30.95
2023-02-08T02:30:00.511Z,31.96
2023-02-08T02:33:08.076Z,33.08
2023-02-08T02:36:24.440Z,33.48
2023-02-08T02:39:17.789Z,33.38
2023-02-08T02:42:25.932Z,32.32
2023-02-08T02:44:59.173Z,33.81
2023-02-08T02:48:01.165Z,33.55
2023-02-08T02:50:33.567Z,31.51
2023-02-08T02:53:37.084Z,33.20
2023-02-08T02:56:11.304Z,30.92
2023-02-08T02:58:40.194Z,32.21
2023-02-08T03:01:10.017Z,30.05
2023-02-08T03:03:37.161Z,29.63
2023-02-08T03:06:15.274Z,32.09
2023-02-08T03:09:22.524Z,30.60
2023-02-08T03:12:11.513Z,32.15
2023-02-08T03:15:28.750Z,33.24
2023-02-08T03:18:06.424Z,33.87
2023-02-08T03:20:45.005Z,32.45
2023-02-08T03:24:00.551Z,32.16
2023-02-08T03:26:42.793Z,31.56
2023-02-08T03:29:16.323Z,32.02
2023-02-08T03:31:49.591Z,31.87
2023-02-08T03:34:54.708Z,31.09
2023-02-08T03:37:30.949Z,31.78
2023-02-08T03:40:14.243Z,29.16
2023-02-08T03:42:42.085Z,31.33
2023-02-08T03:45:32.276Z,31.05
2023-02-08T03:48:03.969Z,29.87
2023-02-08T03:50:36.395Z,29.54
2023-02-08T03:53:05.868Z,30.40
2023-02-08T03:55:37.835Z,31.18
2023-02-08T03:58:46.262Z,30.80
2023-02-08T04:01:25.353Z,32.44
2023-02-08T04:03:54.060Z,32.32
2023-02-08T04:06:23.157Z,30.23
2023-02-08T04:08:50.692Z,29.91
2023-02-08T04:11:17.944Z,29.03
2023-02-08T04:13:45.093Z,29.92
2023-02-08T04:16:15.302Z,30.57
2023-02-08T04:18:42.520Z,30.41
2023-02-08T04:21:09.737Z,29.76
2023-02-08T04:23:36.874Z,33.98
2023-02-08T04:26:04.248Z,31.75
2023-02-08T04:28:31.748Z,33.64
2023-02-08T04:30:59.099Z,35.62
2023-02-08T04:33:26.592Z,34.20
2023-02-08T04:35:53.735Z,33.83
2023-02-08T04:38:21.004Z,35.48
2023-02-08T04:40:48.118Z,32.17
2023-02-08T04:43:15.389Z,34.20
2023-02-08T04:45:42.634Z,33.48
2023-02-08T04:48:11.906Z,35.34
2023-02-08T04:50:39.798Z,35.74
2023-02-08T04:53:07.255Z,36.37
2023-02-08T04:55:35.229Z,32.05
2023-02-08T04:58:02.586Z,33.37
2023-02-08T05:00:30.162Z,31.56
2023-02-08T05:02:59.951Z,33.20
2023-02-08T05:05:28.509Z,32.51
2023-02-08T05:07:55.671Z,33.41
2023-02-08T05:10:22.886Z,33.23
2023-02-08T05:12:50.152Z,30.97
2023-02-08T05:15:20.095Z,30.06
2023-02-08T05:17:47.196Z,30.88
2023-02-08T05:20:15.124Z,30.75
2023-02-08T05:22:45.154Z,29.51
2023-02-08T05:25:12.419Z,29.67
2023-02-08T05:27:39.566Z,31.26
2023-02-08T05:30:07.544Z,33.27
2023-02-08T05:32:37.243Z,33.69
2023-02-08T05:35:04.691Z,34.51
2023-02-08T05:37:31.742Z,32.04
2023-02-08T05:39:59.675Z,32.55
2023-02-08T05:42:27.393Z,34.29
2023-02-08T05:44:54.476Z,32.71
2023-02-08T05:47:22.063Z,31.50
2023-02-08T05:49:51.850Z,30.62
2023-02-08T05:52:19.076Z,31.96
2023-02-08T05:54:46.221Z,29.67
2023-02-08T05:57:13.448Z,30.65
2023-02-08T05:59:40.726Z,29.46
2023-02-08T06:02:08.105Z,29.58
2023-02-08T06:04:37.972Z,29.50
2023-02-08T06:07:06.525Z,30.53
2023-02-08T06:09:33.684Z,29.64
2023-02-08T06:12:15.251Z,28.70
2023-02-08T06:14:42.493Z,28.72
2023-02-08T06:17:09.694Z,29.63
2023-02-08T06:19:36.960Z,31.07
2023-02-08T06:22:04.198Z,29.81
2023-02-08T06:24:31.547Z,32.01
2023-02-08T06:26:58.887Z,31.01
2023-02-08T06:29:26.008Z,29.98
2023-02-08T06:31:53.656Z,33.69
2023-02-08T06:34:21.050Z,31.42
2023-02-08T06:36:48.162Z,31.21
2023-02-08T06:39:15.457Z,32.10
2023-02-08T06:41:42.777Z,32.80
2023-02-08T06:44:10.323Z,32.08
2023-02-08T06:46:37.696Z,31.61
2023-02-08T06:49:05.108Z,30.98
2023-02-08T06:51:34.568Z,30.16
2023-02-08T06:54:01.701Z,29.08
2023-02-08T06:56:28.858Z,28.88
2023-02-08T06:58:57.417Z,29.33
2023-02-08T07:01:27.700Z,28.94
2023-02-08T07:03:55.145Z,28.60
2023-02-08T07:06:22.314Z,29.32
2023-02-08T07:08:49.521Z,30.05
2023-02-08T07:11:20.386Z,29.56
2023-02-08T07:13:52.150Z,29.57
2023-02-08T07:16:20.676Z,28.93
2023-02-08T07:18:48.121Z,32.83
2023-02-08T07:21:15.949Z,28.31
2023-02-08T07:23:43.059Z,28.31
2023-02-08T07:26:14.436Z,28.59
2023-02-08T07:28:42.316Z,28.11
2023-02-08T07:31:18.002Z,29.95
2023-02-08T07:33:45.740Z,29.75
2023-02-08T07:36:13.081Z,31.94
2023-02-08T07:38:40.552Z,31.29
2023-02-08T07:41:13.423Z,28.97
2023-02-08T07:43:42.152Z,29.67
2023-02-08T07:46:21.068Z,26.56
2023-02-08T07:48:52.841Z,24.08
2023-02-08T07:51:22.822Z,23.26
2023-02-08T07:53:51.192Z,26.49
2023-02-08T07:56:20.859Z,23.48
2023-02-08T07:58:50.417Z,22.46
2023-02-08T08:01:22.304Z,21.66
2023-02-08T08:03:51.577Z,21.61
2023-02-08T08:06:23.631Z,23.17
2023-02-08T08:08:54.088Z,24.24
2023-02-08T08:11:22.377Z,22.09
2023-02-08T08:13:50.462Z,20.85
2023-02-08T08:16:18.950Z,23.74
2023-02-08T08:18:49.405Z,23.08
2023-02-08T08:21:16.857Z,21.85
2023-02-08T08:23:44.346Z,20.82
2023-02-08T08:26:19.093Z,21.88
2023-02-08T08:28:47.454Z,22.39
2023-02-08T08:31:19.615Z,21.18
2023-02-08T08:33:47.244Z,21.17
2023-02-08T08:36:14.780Z,23.85
2023-02-08T08:38:42.081Z,22.02
2023-02-08T08:41:18.010Z,20.85
2023-02-08T08:43:48.318Z,22.41
2023-02-08T08:46:16.855Z,21.73
2023-02-08T08:48:44.801Z,19.51
2023-02-08T08:51:12.754Z,20.03
2023-02-08T08:53:40.115Z,21.76
2023-02-08T08:56:07.633Z,18.31
2023-02-08T08:58:35.077Z,20.18
2023-02-08T09:01:02.417Z,19.67
2023-02-08T09:03:29.907Z,18.89
2023-02-08T09:05:59.568Z,18.81
2023-02-08T09:08:26.722Z,17.56
2023-02-08T09:10:54.022Z,17.84
2023-02-08T09:13:21.904Z,17.42
2023-02-08T09:15:49.982Z,16.67
2023-02-08T09:18:17.544Z,18.19
2023-02-08T09:20:44.971Z,18.22
2023-02-08T09:23:14.584Z,17.27
2023-02-08T09:25:42.036Z,17.44
2023-02-08T09:28:09.291Z,17.75
2023-02-08T09:30:36.515Z,17.51
2023-02-08T09:33:03.609Z,19.15
2023-02-08T09:35:30.883Z,18.98
2023-02-08T09:37:58.462Z,18.06
2023-02-08T09:40:33.681Z,18.06
2023-02-08T09:43:19.747Z,16.38
2023-02-08T09:46:15.699Z,16.35
2023-02-08T09:48:47.388Z,17.07
2023-02-08T09:51:35.980Z,16.37
2023-02-08T09:54:37.364Z,17.77
2023-02-08T09:57:12.046Z,19.08
2023-02-08T09:59:53.209Z,18.41
2023-02-08T10:02:34.526Z,17.29
2023-02-08T10:05:12.422Z,16.14
2023-02-08T10:07:42.862Z,16.35
2023-02-08T10:10:30.735Z,16.91
2023-02-08T10:13:25.686Z,17.87
2023-02-08T10:16:11.577Z,19.01
2023-02-08T10:19:14.326Z,16.24
2023-02-08T10:22:04.388Z,17.93
2023-02-08T10:25:39.580Z,16.15
2023-02-08T10:28:21.471Z,12.90
2023-02-08T10:30:57.089Z,13.42
2023-02-08T10:33:37.456Z,19.18
2023-02-08T10:36:16.867Z,15.96
2023-02-08T10:38:46.709Z,15.87
2023-02-08T10:41:23.524Z,17.49
2023-02-08T10:44:04.871Z,14.35
2023-02-08T10:46:55.203Z,13.26
2023-02-08T10:50:00.547Z,14.52
2023-02-08T10:52:28.139Z,14.79
2023-02-08T10:55:00.119Z,12.67
2023-02-08T10:57:35.896Z,12.06
2023-02-08T11:00:12.819Z,12.34
2023-02-08T11:02:43.564Z,13.32
2023-02-08T11:05:17.300Z,12.46
2023-02-08T11:07:44.668Z,13.21
2023-02-08T11:10:22.682Z,13.33
2023-02-08T11:13:20.769Z,13.27
2023-02-08T11:15:57.808Z,12.89
2023-02-08T11:18:48.608Z,12.67
2023-02-08T11:21:42.398Z,12.53
2023-02-08T11:24:15.460Z,11.05
2023-02-08T11:26:43.049Z,14.50
2023-02-08T11:29:17.980Z,12.91
2023-02-08T11:32:19.379Z,12.06
2023-02-08T11:34:48.983Z,12.86
2023-02-08T11:37:26.738Z,12.59
2023-02-08T11:40:02.184Z,12.08
2023-02-08T11:42:47.206Z,13.15
2023-02-08T11:45:30.099Z,13.93
2023-02-08T11:47:57.708Z,15.07
2023-02-08T11:50:33.123Z,14.15
2023-02-08T11:53:04.391Z,13.21
2023-02-08T11:55:34.583Z,14.62
2023-02-08T11:58:13.110Z,15.47
2023-02-08T12:00:41.316Z,14.69
2023-02-08T12:03:25.375Z,20.12
2023-02-08T12:06:07.639Z,20.17
2023-02-08T12:09:03.552Z,19.09
2023-02-08T12:11:42.927Z,18.04
2023-02-08T12:14:39.284Z,15.14
2023-02-08T12:17:34.929Z,15.65
2023-02-08T12:20:26.143Z,17.15
2023-02-08T12:23:15.166Z,18.37
2023-02-08T12:26:04.529Z,20.59
2023-02-08T12:28:53.981Z,18.75
2023-02-08T12:31:54.780Z,16.98
2023-02-08T12:34:49.437Z,18.40
2023-02-08T12:38:04.877Z,20.10
2023-02-08T12:41:12.134Z,19.98
2023-02-08T12:44:27.105Z,19.05
2023-02-08T12:47:34.006Z,18.60
2023-02-08T12:50:09.325Z,22.20
2023-02-08T12:52:48.394Z,19.64
2023-02-08T12:55:35.031Z,19.62
2023-02-08T12:58:30.571Z,23.54
2023-02-08T13:01:09.030Z,23.39
2023-02-08T13:04:09.155Z,22.10
2023-02-08T13:06:49.641Z,20.94
2023-02-08T13:09:35.986Z,23.88
2023-02-08T13:12:14.255Z,23.91
2023-02-08T13:14:48.067Z,21.91
2023-02-08T13:17:23.550Z,24.38
2023-02-08T13:20:01.619Z,25.06
2023-02-08T13:22:40.797Z,25.51
2023-02-08T13:25:34.413Z,26.78
2023-02-08T13:28:11.137Z,24.74
2023-02-08T13:30:40.631Z,27.58
2023-02-08T13:33:18.847Z,29.06
2023-02-08T13:35:53.123Z,29.18
2023-02-08T13:38:35.582Z,30.41
2023-02-08T13:41:18.208Z,26.72
2023-02-08T13:44:04.086Z,28.22
2023-02-08T13:46:44.825Z,29.43
2023-02-08T13:49:54.088Z,31.91
2023-02-08T13:52:46.346Z,30.28
2023-02-08T13:55:33.636Z,28.31
2023-02-08T13:58:06.052Z,28.14
2023-02-08T14:00:37.033Z,30.49
2023-02-08T14:03:21.846Z,31.34
2023-02-08T14:06:22.547Z,30.48
2023-02-08T14:09:13.802Z,30.92
2023-02-08T14:11:43.726Z,31.02
2023-02-08T14:14:24.115Z,30.86
2023-02-08T14:17:21.249Z,31.50
2023-02-08T14:20:06.926Z,31.39
2023-02-08T14:22:48.424Z,31.01
2023-02-08T14:25:16.218Z,32.22
2023-02-08T14:27:52.320Z,33.23
2023-02-08T14:30:19.346Z,33.72
2023-02-08T14:33:12.364Z,30.35
2023-02-08T14:35:59.605Z,29.28
2023-02-08T14:39:10.784Z,30.31
2023-02-08T14:41:48.616Z,29.98
2023-02-08T14:44:43.588Z,31.63
2023-02-08T14:47:24.563Z,32.16
2023-02-08T14:50:24.626Z,32.07
2023-02-08T14:53:27.267Z,33.70
2023-02-08T14:56:24.636Z,30.06
2023-02-08T14:59:12.268Z,31.10
2023-02-08T15:01:50.621Z,32.66
2023-02-08T15:04:20.991Z,33.20
2023-02-08T15:07:17.426Z,33.75
2023-02-08T15:09:46.110Z,34.28
2023-02-08T15:12:32.495Z,33.78
2023-02-08T15:15:05.550Z,34.75
2023-02-08T15:17:41.098Z,35.27
2023-02-08T15:20:27.220Z,32.03
2023-02-08T15:23:18.136Z,35.15
2023-02-08T15:25:54.203Z,35.06
2023-02-08T15:28:25.855Z,35.10
2023-02-08T15:31:09.341Z,32.76
2023-02-08T15:33:44.666Z,30.85
2023-02-08T15:36:29.442Z,29.43
2023-02-08T15:39:11.321Z,32.25
2023-02-08T15:41:38.546Z,28.88
2023-02-08T15:44:28.048Z,29.78
2023-02-08T15:46:57.353Z,31.04
2023-02-08T15:49:39.692Z,31.23
2023-02-08T15:52:08.186Z,31.11
2023-02-08T15:54:35.747Z,32.22
2023-02-08T15:57:18.874Z,33.19
2023-02-08T15:59:48.537Z,34.33
2023-02-08T16:02:32.848Z,32.02
2023-02-08T16:05:02.658Z,33.34
2023-02-08T16:07:39.194Z,35.27
2023-02-08T16:10:10.170Z,32.25
2023-02-08T16:12:37.371Z,33.42
2023-02-08T16:15:05.058Z,35.11
2023-02-08T16:17:43.320Z,34.70
2023-02-08T16:20:33.807Z,32.74
2023-02-08T16:23:23.734Z,32.87
2023-02-08T16:25:51.442Z,35.22
2023-02-08T16:28:33.821Z,34.09
2023-02-08T16:31:05.041Z,33.98
2023-02-08T16:33:34.936Z,34.51
2023-02-08T16:36:02.277Z,35.51
2023-02-08T16:38:32.419Z,34.46
2023-02-08T16:41:12.381Z,36.09
2023-02-08T16:43:47.952Z,34.69
2023-02-08T16:46:25.292Z,34.53
2023-02-08T16:48:57.350Z,34.04
2023-02-08T16:51:28.892Z,32.47
2023-02-08T16:54:07.570Z,33.99
2023-02-08T16:56:39.832Z,34.72
2023-02-08T16:59:08.610Z,34.17
2023-02-08T17:01:36.298Z,32.78
2023-02-08T17:04:04.064Z,32.84
2023-02-08T17:06:36.799Z,31.27
2023-02-08T17:09:06.641Z,32.40
2023-02-08T17:11:33.843Z,35.55
2023-02-08T17:14:01.186Z,35.97
2023-02-08T17:16:31.073Z,36.55
2023-02-08T17:18:59.680Z,36.33
2023-02-08T17:21:29.392Z,36.34
2023-02-08T17:23:57.619Z,38.40
2023-02-08T17:26:40.281Z,35.94
2023-02-08T17:29:08.331Z,38.67
2023-02-08T17:31:35.947Z,38.60
2023-02-08T17:34:06.112Z,36.73
2023-02-08T17:36:36.136Z,36.22
2023-02-08T17:39:05.544Z,38.20
2023-02-08T17:41:32.962Z,37.27
2023-02-08T17:44:00.235Z,38.83
2023-02-08T17:46:30.779Z,36.27
2023-02-08T17:49:01.857Z,36.20
2023-02-08T17:51:29.595Z,38.02
2023-02-08T17:53:57.065Z,37.72
2023-02-08T17:56:31.542Z,37.95
2023-02-08T17:59:00.976Z,36.22
2023-02-08T18:01:28.213Z,38.19
2023-02-08T18:03:55.872Z,36.48
2023-02-08T18:06:25.067Z,35.73
2023-02-08T18:08:54.029Z,36.80
2023-02-08T18:11:23.592Z,38.00
2023-02-08T18:13:53.081Z,38.52
2023-02-08T18:16:24.791Z,36.31
2023-02-08T18:18:55.908Z,37.46
2023-02-08T18:21:27.050Z,37.74
2023-02-08T18:23:55.588Z,38.93
2023-02-08T18:26:25.204Z,38.40
2023-02-08T18:28:53.689Z,39.17
2023-02-08T18:31:21.288Z,36.89
2023-02-08T18:33:51.764Z,37.76
2023-02-08T18:36:20.701Z,38.18
2023-02-08T18:38:51.822Z,35.82
2023-02-08T18:41:23.540Z,35.87
2023-02-08T18:43:51.880Z,35.15
2023-02-08T18:46:22.519Z,38.68
2023-02-08T18:48:51.402Z,36.22
2023-02-08T18:51:20.104Z,37.90
2023-02-08T18:53:55.160Z,37.26
2023-02-08T18:56:25.408Z,34.57
2023-02-08T18:58:54.875Z,34.40
2023-02-08T19:01:24.767Z,37.58
2023-02-08T19:03:52.936Z,38.85
2023-02-08T19:06:26.880Z,36.45
2023-02-08T19:08:55.690Z,35.57
2023-02-08T19:11:34.141Z,38.02
2023-02-08T19:14:04.977Z,39.13
2023-02-08T19:16:35.301Z,35.83
2023-02-08T19:19:04.246Z,35.25
2023-02-08T19:21:34.815Z,33.78
2023-02-08T19:24:02.786Z,33.70
2023-02-08T19:26:35.467Z,35.81
2023-02-08T19:29:06.722Z,34.84
2023-02-08T19:31:35.173Z,36.60
2023-02-08T19:34:04.530Z,36.90
2023-02-08T19:36:32.935Z,37.52
2023-02-08T19:39:04.354Z,36.88
2023-02-08T19:41:38.327Z,35.84
2023-02-08T19:44:08.717Z,38.54
2023-02-08T19:46:38.915Z,36.87
2023-02-08T19:49:07.713Z,36.01
2023-02-08T19:51:38.012Z,37.33
2023-02-08T19:54:10.680Z,34.67
2023-02-08T19:56:38.317Z,36.45
2023-02-08T19:59:08.413Z,35.03
2023-02-08T20:01:36.320Z,34.27
2023-02-08T20:04:06.354Z,36.08
2023-02-08T20:06:37.329Z,35.23
2023-02-08T20:09:06.873Z,34.35
2023-02-08T20:12:00.268Z,37.41
2023-02-08T20:14:32.853Z,34.56
2023-02-08T20:17:02.211Z,36.27
2023-02-08T20:19:29.597Z,36.46
2023-02-08T20:21:56.774Z,37.09
2023-02-08T20:24:24.100Z,36.48
2023-02-08T20:26:51.555Z,34.39
2023-02-08T20:29:19.114Z,36.84
2023-02-08T20:31:49.365Z,36.96
2023-02-08T20:34:19.496Z,34.78
2023-02-08T20:37:06.898Z,32.51
2023-02-08T20:39:36.696Z,34.40
2023-02-08T20:42:04.953Z,37.89
2023-02-08T20:44:32.382Z,37.75
2023-02-08T20:47:00.202Z,37.44
2023-02-08T20:49:27.508Z,36.78
2023-02-08T20:51:57.407Z,38.00
2023-02-08T20:54:25.040Z,38.97
2023-02-08T20:56:53.178Z,37.24
2023-02-08T20:59:23.196Z,37.94
2023-02-08T21:01:50.662Z,39.75
2023-02-08T21:04:20.352Z,39.14
2023-02-08T21:06:47.895Z,40.34
2023-02-08T21:09:18.092Z,38.52
2023-02-08T21:11:47.280Z,38.63
2023-02-08T21:14:19.176Z,37.76
2023-02-08T21:16:55.926Z,36.12
2023-02-08T21:19:24.210Z,35.72
2023-02-08T21:21:54.220Z,35.75
2023-02-08T21:24:23.982Z,36.14
2023-02-08T21:26:53.138Z,39.35
2023-02-08T21:29:21.499Z,36.49
2023-02-08T21:31:52.018Z,35.20
2023-02-08T21:34:22.082Z,38.48
2023-02-08T21:36:51.413Z,34.75
2023-02-08T21:39:18.921Z,34.49
2023-02-08T21:41:49.148Z,35.48
2023-02-08T21:44:18.749Z,33.55
2023-02-08T21:46:46.079Z,35.94
2023-02-08T21:49:32.007Z,35.62
2023-02-08T21:52:17.912Z,36.10
2023-02-08T21:54:45.922Z,32.18
2023-02-08T21:57:19.329Z,35.88
2023-02-08T21:59:49.670Z,34.68
2023-02-08T22:02:28.106Z,32.94
2023-02-08T22:04:58.475Z,34.58
2023-02-08T22:07:27.614Z,33.25
2023-02-08T22:09:56.308Z,31.68
2023-02-08T22:12:23.915Z,30.25
2023-02-08T22:14:51.301Z,30.44
2023-02-08T22:17:18.936Z,30.58
2023-02-08T22:19:46.235Z,30.36
2023-02-08T22:22:13.445Z,29.74
2023-02-08T22:24:42.992Z,29.79
2023-02-08T22:27:10.595Z,30.42
2023-02-08T22:29:37.877Z,30.34
2023-02-08T22:32:06.060Z,29.92
2023-02-08T22:34:33.339Z,31.77
2023-02-08T22:37:03.807Z,30.55
2023-02-08T22:39:35.993Z,32.26
2023-02-08T22:42:08.537Z,33.57
2023-02-08T22:44:36.599Z,33.52
2023-02-08T22:47:15.880Z,33.44
2023-02-08T22:49:43.045Z,36.99
2023-02-08T22:52:11.940Z,35.75
2023-02-08T22:54:39.158Z,36.54
2023-02-08T22:57:09.146Z,31.99
2023-02-08T22:59:40.416Z,34.19
2023-02-08T23:02:12.765Z,33.42
2023-02-08T23:04:42.274Z,36.07
2023-02-08T23:07:09.500Z,35.37
2023-02-08T23:09:36.753Z,36.61
2023-02-08T23:12:11.432Z,39.60
2023-02-08T23:14:38.705Z,39.11
2023-02-08T23:17:05.835Z,36.68
2023-02-08T23:19:33.021Z,37.36
2023-02-08T23:22:00.563Z,36.99
2023-02-08T23:24:28.158Z,38.26
2023-02-08T23:26:55.495Z,35.99
2023-02-08T23:29:22.737Z,33.89
2023-02-08T23:31:49.996Z,32.67
2023-02-08T23:34:18.369Z,32.43
2023-02-08T23:36:48.125Z,33.22
2023-02-08T23:39:15.344Z,34.50
2023-02-08T23:41:42.481Z,36.03
2023-02-08T23:44:09.921Z,34.02
2023-02-08T23:46:37.067Z,37.72
2023-02-08T23:49:06.684Z,36.13
2023-02-08T23:51:33.913Z,35.34
2023-02-08T23:54:01.082Z,36.51
2023-02-08T23:56:32.041Z,35.38
2023-02-08T23:58:59.847Z,37.47
